Coastal Carolina Regional Airport
KEWN : now visible

Airfield :











YOU CAN JOIN US ON...

 
LOGIN :

Register | Disclaimer

   EN    FR    IT 

 









Legend :    VFR   Marginal VFR   IFR   Intensive IFR   Very Intensive IFR
Visi :
Ceiling :
>= 8 km
>= 3000ft
5 to 8 km
1000 to 3000 ft
1500m to 5 km
500 to 1000 ft
800 to 1500m
200 to 500 ft
< 800m
< 200 ft
Symbols :   Thunderstorms  Fog  Heavy snow  Heavy precipitations  Wind > 20 kt






- Airport Elevation : 18 ft
- IATA code : EWN


KEWN - Coastal Carolina Regional

CURRENT METAR :
  • 121654Z 05015KT 10SM -RA BKN060 OVC085 12/08 A3024 RMK AO2 SLP239 P0004 T01220078

EXPIRED METARs :
  • 121554Z 03014G19KT 10SM -RA SCT060 OVC085 13/09 A3024 RMK AO2 SLP239 P0001 T01280094
  • 121454Z 04011KT 10SM -RA FEW031 OVC100 13/10 A3023 RMK AO2 SLP236 P0002 60005 T01330100 50016

TAF KEWN
Valid from the 12 at 18:00 until the 13 at 18:00 UTC


121730Z 1218/1318 03012G18KT 4SM -RA BR SCT007 OVC015
FM121900 02011G18KT 3SM -RA BR OVC007
FM130100 02007KT P6SM VCSH OVC025
FM130300 02005KT P6SM OVC040
FM131200 03010G15KT P6SM BKN070
KZDC FIR / North America



MET'MAP, your aeronautical weather chart ! - Copyright ORBIFLY December 2007 - Disclaimer

ORBIFLY MET'MAP TEAM :

Programming & Development : Alexandra Zaïnal
Concept & original design : Baudouin d'Aumeries
Assistance for programming : Marc-Olivier Méhu
Technical & hardware support : Manuel Goepfert

Contact : metmap@orbifly.com




SOURCES & CREDITS :

   NOAA       Earth
Advisory